sensor_id;sensor_type;location;lat;lon;timestamp;P1;durP1;ratioP1;P2;durP2;ratioP2
48727;SDS011;34527;45.618;5.130;2023-06-10T00:01:07;5.93;;;4.07;;
48727;SDS011;34527;45.618;5.130;2023-06-10T00:03:33;7.20;;;3.97;;
48727;SDS011;34527;45.618;5.130;2023-06-10T00:05:58;6.13;;;3.80;;
48727;SDS011;34527;45.618;5.130;2023-06-10T00:08:24;6.50;;;4.10;;
48727;SDS011;34527;45.618;5.130;2023-06-10T00:10:50;6.32;;;4.15;;
48727;SDS011;34527;45.618;5.130;2023-06-10T00:13:16;6.53;;;4.10;;
48727;SDS011;34527;45.618;5.130;2023-06-10T00:15:41;5.85;;;3.63;;
48727;SDS011;34527;45.618;5.130;2023-06-10T00:18:07;5.70;;;3.97;;
48727;SDS011;34527;45.618;5.130;2023-06-10T00:20:34;6.10;;;4.13;;
48727;SDS011;34527;45.618;5.130;2023-06-10T00:23:02;6.88;;;4.00;;
48727;SDS011;34527;45.618;5.130;2023-06-10T00:25:28;4.28;;;3.88;;
48727;SDS011;34527;45.618;5.130;2023-06-10T00:27:54;7.22;;;4.05;;
48727;SDS011;34527;45.618;5.130;2023-06-10T00:30:20;7.68;;;3.53;;
48727;SDS011;34527;45.618;5.130;2023-06-10T00:32:46;4.07;;;3.20;;
48727;SDS011;34527;45.618;5.130;2023-06-10T00:35:12;4.95;;;3.70;;
48727;SDS011;34527;45.618;5.130;2023-06-10T00:37:37;5.60;;;3.92;;
48727;SDS011;34527;45.618;5.130;2023-06-10T00:40:03;8.73;;;3.60;;
48727;SDS011;34527;45.618;5.130;2023-06-10T00:42:30;7.68;;;3.55;;
48727;SDS011;34527;45.618;5.130;2023-06-10T00:44:56;7.13;;;3.65;;
48727;SDS011;34527;45.618;5.130;2023-06-10T00:47:22;7.03;;;3.13;;
48727;SDS011;34527;45.618;5.130;2023-06-10T00:49:48;7.32;;;3.20;;
48727;SDS011;34527;45.618;5.130;2023-06-10T00:52:15;3.50;;;3.15;;
48727;SDS011;34527;45.618;5.130;2023-06-10T00:54:43;7.35;;;3.25;;
48727;SDS011;34527;45.618;5.130;2023-06-10T00:57:09;4.47;;;3.05;;
48727;SDS011;34527;45.618;5.130;2023-06-10T00:59:35;5.35;;;3.25;;
48727;SDS011;34527;45.618;5.130;2023-06-10T01:02:01;3.97;;;3.25;;
48727;SDS011;34527;45.618;5.130;2023-06-10T01:04:27;3.55;;;3.10;;
48727;SDS011;34527;45.618;5.130;2023-06-10T01:09:23;4.00;;;3.00;;
48727;SDS011;34527;45.618;5.130;2023-06-10T01:12:16;3.65;;;3.15;;
48727;SDS011;34527;45.618;5.130;2023-06-10T01:14:59;4.20;;;3.30;;
48727;SDS011;34527;45.618;5.130;2023-06-10T01:17:26;5.47;;;3.10;;
48727;SDS011;34527;45.618;5.130;2023-06-10T01:19:55;5.90;;;3.00;;
48727;SDS011;34527;45.618;5.130;2023-06-10T01:22:25;3.30;;;2.60;;
48727;SDS011;34527;45.618;5.130;2023-06-10T01:24:57;4.60;;;3.15;;
48727;SDS011;34527;45.618;5.130;2023-06-10T01:27:25;4.65;;;2.90;;
48727;SDS011;34527;45.618;5.130;2023-06-10T01:30:04;5.95;;;3.10;;
48727;SDS011;34527;45.618;5.130;2023-06-10T01:32:42;6.85;;;3.20;;
48727;SDS011;34527;45.618;5.130;2023-06-10T01:35:15;5.15;;;3.00;;
48727;SDS011;34527;45.618;5.130;2023-06-10T01:37:42;8.23;;;3.30;;
48727;SDS011;34527;45.618;5.130;2023-06-10T01:40:11;6.65;;;2.90;;
48727;SDS011;34527;45.618;5.130;2023-06-10T01:42:38;3.13;;;2.83;;
48727;SDS011;34527;45.618;5.130;2023-06-10T01:45:04;7.00;;;3.00;;
48727;SDS011;34527;45.618;5.130;2023-06-10T01:47:30;3.20;;;2.85;;
48727;SDS011;34527;45.618;5.130;2023-06-10T01:49:56;4.07;;;3.00;;
48727;SDS011;34527;45.618;5.130;2023-06-10T01:52:22;4.45;;;2.90;;
48727;SDS011;34527;45.618;5.130;2023-06-10T01:54:47;4.78;;;2.97;;
48727;SDS011;34527;45.618;5.130;2023-06-10T01:57:13;4.63;;;3.15;;
48727;SDS011;34527;45.618;5.130;2023-06-10T01:59:38;4.45;;;3.03;;
48727;SDS011;34527;45.618;5.130;2023-06-10T02:02:04;5.85;;;3.25;;
48727;SDS011;34527;45.618;5.130;2023-06-10T02:04:30;3.85;;;3.30;;
48727;SDS011;34527;45.618;5.130;2023-06-10T02:06:56;4.88;;;3.20;;
48727;SDS011;34527;45.618;5.130;2023-06-10T02:09:22;6.00;;;2.90;;
48727;SDS011;34527;45.618;5.130;2023-06-10T02:11:48;5.80;;;2.88;;
48727;SDS011;34527;45.618;5.130;2023-06-10T02:14:14;5.10;;;2.90;;
48727;SDS011;34527;45.618;5.130;2023-06-10T02:16:40;7.00;;;3.22;;
48727;SDS011;34527;45.618;5.130;2023-06-10T02:19:05;5.15;;;3.28;;
48727;SDS011;34527;45.618;5.130;2023-06-10T02:21:32;6.63;;;3.42;;
48727;SDS011;34527;45.618;5.130;2023-06-10T02:23:59;7.75;;;3.40;;
48727;SDS011;34527;45.618;5.130;2023-06-10T02:26:25;8.45;;;3.13;;
48727;SDS011;34527;45.618;5.130;2023-06-10T02:28:51;5.78;;;3.28;;
48727;SDS011;34527;45.618;5.130;2023-06-10T02:31:17;5.38;;;3.05;;
48727;SDS011;34527;45.618;5.130;2023-06-10T02:33:43;6.32;;;3.60;;
48727;SDS011;34527;45.618;5.130;2023-06-10T02:36:09;4.47;;;3.40;;
48727;SDS011;34527;45.618;5.130;2023-06-10T02:38:38;7.00;;;3.10;;
48727;SDS011;34527;45.618;5.130;2023-06-10T02:41:07;4.32;;;3.30;;
48727;SDS011;34527;45.618;5.130;2023-06-10T02:43:33;4.00;;;3.60;;
48727;SDS011;34527;45.618;5.130;2023-06-10T02:45:58;6.70;;;3.83;;
48727;SDS011;34527;45.618;5.130;2023-06-10T02:48:24;4.07;;;3.67;;
48727;SDS011;34527;45.618;5.130;2023-06-10T02:50:50;7.55;;;4.03;;
48727;SDS011;34527;45.618;5.130;2023-06-10T02:53:15;10.38;;;3.80;;
48727;SDS011;34527;45.618;5.130;2023-06-10T02:55:41;7.53;;;4.00;;
48727;SDS011;34527;45.618;5.130;2023-06-10T02:58:07;6.03;;;4.03;;
48727;SDS011;34527;45.618;5.130;2023-06-10T03:00:33;7.18;;;4.18;;
48727;SDS011;34527;45.618;5.130;2023-06-10T03:02:59;5.28;;;3.67;;
48727;SDS011;34527;45.618;5.130;2023-06-10T03:05:27;8.30;;;3.85;;
48727;SDS011;34527;45.618;5.130;2023-06-10T03:07:53;9.05;;;4.00;;
48727;SDS011;34527;45.618;5.130;2023-06-10T03:10:19;8.02;;;4.30;;
48727;SDS011;34527;45.618;5.130;2023-06-10T03:12:44;7.63;;;4.15;;
48727;SDS011;34527;45.618;5.130;2023-06-10T03:15:10;6.50;;;4.57;;
48727;SDS011;34527;45.618;5.130;2023-06-10T03:17:36;6.13;;;3.67;;
48727;SDS011;34527;45.618;5.130;2023-06-10T03:20:02;5.07;;;4.18;;
48727;SDS011;34527;45.618;5.130;2023-06-10T03:22:30;8.88;;;4.30;;
48727;SDS011;34527;45.618;5.130;2023-06-10T03:24:56;7.07;;;4.07;;
48727;SDS011;34527;45.618;5.130;2023-06-10T03:27:22;6.63;;;4.00;;
48727;SDS011;34527;45.618;5.130;2023-06-10T03:29:48;5.10;;;4.05;;
48727;SDS011;34527;45.618;5.130;2023-06-10T03:32:13;6.53;;;4.53;;
48727;SDS011;34527;45.618;5.130;2023-06-10T03:34:40;5.90;;;3.80;;
48727;SDS011;34527;45.618;5.130;2023-06-10T03:37:05;5.63;;;3.92;;
48727;SDS011;34527;45.618;5.130;2023-06-10T03:39:32;7.93;;;4.10;;
48727;SDS011;34527;45.618;5.130;2023-06-10T03:41:58;10.32;;;4.30;;
48727;SDS011;34527;45.618;5.130;2023-06-10T03:44:26;8.63;;;4.20;;
48727;SDS011;34527;45.618;5.130;2023-06-10T03:46:52;6.50;;;4.53;;
48727;SDS011;34527;45.618;5.130;2023-06-10T03:49:19;6.55;;;4.25;;
48727;SDS011;34527;45.618;5.130;2023-06-10T03:51:45;7.53;;;4.68;;
48727;SDS011;34527;45.618;5.130;2023-06-10T03:54:10;6.07;;;4.38;;
48727;SDS011;34527;45.618;5.130;2023-06-10T03:56:36;7.70;;;4.60;;
48727;SDS011;34527;45.618;5.130;2023-06-10T03:59:02;6.40;;;4.18;;
48727;SDS011;34527;45.618;5.130;2023-06-10T04:01:27;10.10;;;4.50;;
48727;SDS011;34527;45.618;5.130;2023-06-10T04:03:53;6.40;;;4.80;;
48727;SDS011;34527;45.618;5.130;2023-06-10T04:06:19;8.20;;;4.38;;
48727;SDS011;34527;45.618;5.130;2023-06-10T04:08:47;7.57;;;5.05;;
48727;SDS011;34527;45.618;5.130;2023-06-10T04:11:13;9.60;;;4.88;;
48727;SDS011;34527;45.618;5.130;2023-06-10T04:13:38;6.30;;;4.45;;
48727;SDS011;34527;45.618;5.130;2023-06-10T04:16:04;7.90;;;4.75;;
48727;SDS011;34527;45.618;5.130;2023-06-10T04:18:30;8.50;;;4.75;;
48727;SDS011;34527;45.618;5.130;2023-06-10T04:20:55;11.93;;;4.75;;
48727;SDS011;34527;45.618;5.130;2023-06-10T04:23:21;6.18;;;4.40;;
48727;SDS011;34527;45.618;5.130;2023-06-10T04:25:47;5.53;;;4.38;;
48727;SDS011;34527;45.618;5.130;2023-06-10T04:28:13;5.80;;;4.03;;
48727;SDS011;34527;45.618;5.130;2023-06-10T04:30:39;9.02;;;5.25;;
48727;SDS011;34527;45.618;5.130;2023-06-10T04:33:04;5.40;;;4.53;;
48727;SDS011;34527;45.618;5.130;2023-06-10T04:35:32;7.97;;;4.95;;
48727;SDS011;34527;45.618;5.130;2023-06-10T04:37:57;8.98;;;4.90;;
48727;SDS011;34527;45.618;5.130;2023-06-10T04:40:23;11.05;;;5.05;;
48727;SDS011;34527;45.618;5.130;2023-06-10T04:42:49;8.30;;;4.82;;
48727;SDS011;34527;45.618;5.130;2023-06-10T04:45:14;10.30;;;4.93;;
48727;SDS011;34527;45.618;5.130;2023-06-10T04:47:40;6.53;;;5.00;;
48727;SDS011;34527;45.618;5.130;2023-06-10T04:50:06;6.25;;;5.10;;
48727;SDS011;34527;45.618;5.130;2023-06-10T04:52:31;7.90;;;4.75;;
48727;SDS011;34527;45.618;5.130;2023-06-10T04:54:58;5.32;;;4.65;;
48727;SDS011;34527;45.618;5.130;2023-06-10T04:57:24;9.27;;;5.25;;
48727;SDS011;34527;45.618;5.130;2023-06-10T04:59:51;7.90;;;5.30;;
48727;SDS011;34527;45.618;5.130;2023-06-10T05:02:17;7.63;;;5.18;;
48727;SDS011;34527;45.618;5.130;2023-06-10T05:04:42;6.85;;;4.70;;
48727;SDS011;34527;45.618;5.130;2023-06-10T05:07:08;7.60;;;4.70;;
48727;SDS011;34527;45.618;5.130;2023-06-10T05:09:34;6.40;;;4.75;;
48727;SDS011;34527;45.618;5.130;2023-06-10T05:11:59;6.90;;;4.85;;
48727;SDS011;34527;45.618;5.130;2023-06-10T05:14:25;6.85;;;4.90;;
48727;SDS011;34527;45.618;5.130;2023-06-10T05:16:50;6.55;;;5.18;;
48727;SDS011;34527;45.618;5.130;2023-06-10T05:19:16;6.25;;;4.97;;
48727;SDS011;34527;45.618;5.130;2023-06-10T05:21:42;7.95;;;5.03;;
48727;SDS011;34527;45.618;5.130;2023-06-10T05:24:08;7.15;;;5.30;;
48727;SDS011;34527;45.618;5.130;2023-06-10T05:26:34;6.68;;;5.03;;
48727;SDS011;34527;45.618;5.130;2023-06-10T05:29:02;6.25;;;5.07;;
48727;SDS011;34527;45.618;5.130;2023-06-10T05:31:31;8.38;;;5.03;;
48727;SDS011;34527;45.618;5.130;2023-06-10T05:33:57;8.23;;;5.10;;
48727;SDS011;34527;45.618;5.130;2023-06-10T05:36:22;7.82;;;5.22;;
48727;SDS011;34527;45.618;5.130;2023-06-10T05:38:50;7.65;;;4.78;;
48727;SDS011;34527;45.618;5.130;2023-06-10T05:41:16;6.32;;;5.05;;
48727;SDS011;34527;45.618;5.130;2023-06-10T05:43:41;7.78;;;5.20;;
48727;SDS011;34527;45.618;5.130;2023-06-10T05:46:07;6.85;;;4.60;;
48727;SDS011;34527;45.618;5.130;2023-06-10T05:48:32;6.10;;;4.05;;
48727;SDS011;34527;45.618;5.130;2023-06-10T05:50:58;7.60;;;4.57;;
48727;SDS011;34527;45.618;5.130;2023-06-10T05:53:24;7.90;;;4.50;;
48727;SDS011;34527;45.618;5.130;2023-06-10T05:55:49;8.23;;;4.35;;
48727;SDS011;34527;45.618;5.130;2023-06-10T05:58:16;4.95;;;4.45;;
48727;SDS011;34527;45.618;5.130;2023-06-10T06:00:41;9.30;;;4.30;;
48727;SDS011;34527;45.618;5.130;2023-06-10T06:03:07;5.78;;;4.75;;
48727;SDS011;34527;45.618;5.130;2023-06-10T06:05:33;6.28;;;3.70;;
48727;SDS011;34527;45.618;5.130;2023-06-10T06:08:04;4.55;;;3.67;;
48727;SDS011;34527;45.618;5.130;2023-06-10T06:10:30;5.57;;;4.22;;
48727;SDS011;34527;45.618;5.130;2023-06-10T06:12:55;5.60;;;4.43;;
48727;SDS011;34527;45.618;5.130;2023-06-10T06:15:21;5.13;;;4.00;;
48727;SDS011;34527;45.618;5.130;2023-06-10T06:17:46;5.00;;;4.18;;
48727;SDS011;34527;45.618;5.130;2023-06-10T06:20:12;6.53;;;4.40;;
48727;SDS011;34527;45.618;5.130;2023-06-10T06:22:38;5.70;;;4.18;;
48727;SDS011;34527;45.618;5.130;2023-06-10T06:25:04;5.55;;;4.40;;
48727;SDS011;34527;45.618;5.130;2023-06-10T06:27:30;6.68;;;3.83;;
48727;SDS011;34527;45.618;5.130;2023-06-10T06:29:56;6.13;;;4.13;;
48727;SDS011;34527;45.618;5.130;2023-06-10T06:32:22;6.20;;;3.90;;
48727;SDS011;34527;45.618;5.130;2023-06-10T06:34:49;4.00;;;3.60;;
48727;SDS011;34527;45.618;5.130;2023-06-10T06:37:19;5.60;;;3.85;;
48727;SDS011;34527;45.618;5.130;2023-06-10T06:39:49;5.72;;;3.60;;
48727;SDS011;34527;45.618;5.130;2023-06-10T06:42:18;5.93;;;3.95;;
48727;SDS011;34527;45.618;5.130;2023-06-10T06:44:45;4.20;;;3.67;;
48727;SDS011;34527;45.618;5.130;2023-06-10T06:47:11;6.63;;;3.85;;
48727;SDS011;34527;45.618;5.130;2023-06-10T06:49:37;4.55;;;3.63;;
48727;SDS011;34527;45.618;5.130;2023-06-10T06:52:03;7.75;;;3.83;;
48727;SDS011;34527;45.618;5.130;2023-06-10T06:54:29;3.90;;;3.50;;
48727;SDS011;34527;45.618;5.130;2023-06-10T06:56:55;5.00;;;3.60;;
48727;SDS011;34527;45.618;5.130;2023-06-10T06:59:20;5.45;;;3.28;;
48727;SDS011;34527;45.618;5.130;2023-06-10T07:01:46;6.70;;;3.92;;
48727;SDS011;34527;45.618;5.130;2023-06-10T07:04:14;5.15;;;3.58;;
48727;SDS011;34527;45.618;5.130;2023-06-10T07:06:40;4.38;;;3.53;;
48727;SDS011;34527;45.618;5.130;2023-06-10T07:09:07;5.60;;;4.47;;
48727;SDS011;34527;45.618;5.130;2023-06-10T07:11:34;4.20;;;3.47;;
48727;SDS011;34527;45.618;5.130;2023-06-10T07:13:59;5.88;;;3.65;;
48727;SDS011;34527;45.618;5.130;2023-06-10T07:16:25;4.45;;;3.15;;
48727;SDS011;34527;45.618;5.130;2023-06-10T07:18:51;4.07;;;3.33;;
48727;SDS011;34527;45.618;5.130;2023-06-10T07:21:17;5.55;;;3.03;;
48727;SDS011;34527;45.618;5.130;2023-06-10T07:23:43;4.70;;;3.20;;
48727;SDS011;34527;45.618;5.130;2023-06-10T07:26:09;5.97;;;3.25;;
48727;SDS011;34527;45.618;5.130;2023-06-10T07:28:41;3.40;;;3.10;;
48727;SDS011;34527;45.618;5.130;2023-06-10T07:31:07;5.13;;;3.60;;
48727;SDS011;34527;45.618;5.130;2023-06-10T07:33:33;4.45;;;3.13;;
48727;SDS011;34527;45.618;5.130;2023-06-10T07:35:59;3.38;;;3.00;;
48727;SDS011;34527;45.618;5.130;2023-06-10T07:38:25;4.68;;;3.22;;
48727;SDS011;34527;45.618;5.130;2023-06-10T07:40:51;5.90;;;3.13;;
48727;SDS011;34527;45.618;5.130;2023-06-10T07:43:17;9.05;;;3.53;;
48727;SDS011;34527;45.618;5.130;2023-06-10T07:45:43;3.22;;;2.92;;
48727;SDS011;34527;45.618;5.130;2023-06-10T07:48:09;5.65;;;3.25;;
48727;SDS011;34527;45.618;5.130;2023-06-10T07:50:35;3.40;;;3.00;;
48727;SDS011;34527;45.618;5.130;2023-06-10T07:53:01;5.35;;;3.08;;
48727;SDS011;34527;45.618;5.130;2023-06-10T07:55:27;4.65;;;2.92;;
48727;SDS011;34527;45.618;5.130;2023-06-10T07:57:53;5.22;;;3.00;;
48727;SDS011;34527;45.618;5.130;2023-06-10T08:00:19;3.78;;;3.25;;
48727;SDS011;34527;45.618;5.130;2023-06-10T08:02:45;6.90;;;3.28;;
48727;SDS011;34527;45.618;5.130;2023-06-10T08:05:11;3.75;;;3.00;;
48727;SDS011;34527;45.618;5.130;2023-06-10T08:07:37;5.63;;;2.95;;
48727;SDS011;34527;45.618;5.130;2023-06-10T08:10:04;3.33;;;2.63;;
48727;SDS011;34527;45.618;5.130;2023-06-10T08:12:30;3.00;;;2.70;;
48727;SDS011;34527;45.618;5.130;2023-06-10T08:14:56;4.97;;;2.88;;
48727;SDS011;34527;45.618;5.130;2023-06-10T08:17:22;4.22;;;3.38;;
48727;SDS011;34527;45.618;5.130;2023-06-10T08:19:48;5.00;;;2.95;;
48727;SDS011;34527;45.618;5.130;2023-06-10T08:22:14;4.45;;;2.70;;
48727;SDS011;34527;45.618;5.130;2023-06-10T08:24:40;3.38;;;2.78;;
48727;SDS011;34527;45.618;5.130;2023-06-10T08:27:05;2.92;;;2.65;;
48727;SDS011;34527;45.618;5.130;2023-06-10T08:29:31;3.95;;;2.45;;
48727;SDS011;34527;45.618;5.130;2023-06-10T08:31:57;3.08;;;2.75;;
48727;SDS011;34527;45.618;5.130;2023-06-10T08:34:23;3.72;;;3.05;;
48727;SDS011;34527;45.618;5.130;2023-06-10T08:36:49;3.65;;;2.88;;
48727;SDS011;34527;45.618;5.130;2023-06-10T08:39:20;4.97;;;3.20;;
48727;SDS011;34527;45.618;5.130;2023-06-10T08:41:51;2.83;;;2.58;;
48727;SDS011;34527;45.618;5.130;2023-06-10T08:44:30;3.08;;;2.78;;
48727;SDS011;34527;45.618;5.130;2023-06-10T08:46:58;3.88;;;3.00;;
48727;SDS011;34527;45.618;5.130;2023-06-10T08:49:26;4.47;;;2.95;;
48727;SDS011;34527;45.618;5.130;2023-06-10T08:52:03;7.43;;;3.38;;
48727;SDS011;34527;45.618;5.130;2023-06-10T08:54:31;3.80;;;3.35;;
48727;SDS011;34527;45.618;5.130;2023-06-10T08:57:00;3.10;;;2.80;;
48727;SDS011;34527;45.618;5.130;2023-06-10T08:59:31;4.95;;;3.85;;
48727;SDS011;34527;45.618;5.130;2023-06-10T09:01:57;4.03;;;3.20;;
48727;SDS011;34527;45.618;5.130;2023-06-10T09:04:26;3.05;;;2.30;;
48727;SDS011;34527;45.618;5.130;2023-06-10T09:06:52;4.35;;;3.20;;
48727;SDS011;34527;45.618;5.130;2023-06-10T09:09:18;3.10;;;2.83;;
48727;SDS011;34527;45.618;5.130;2023-06-10T09:11:45;6.70;;;3.00;;
48727;SDS011;34527;45.618;5.130;2023-06-10T09:14:11;4.93;;;3.25;;
48727;SDS011;34527;45.618;5.130;2023-06-10T09:16:41;5.75;;;3.15;;
48727;SDS011;34527;45.618;5.130;2023-06-10T09:19:07;3.40;;;2.92;;
48727;SDS011;34527;45.618;5.130;2023-06-10T09:21:33;3.95;;;2.90;;
48727;SDS011;34527;45.618;5.130;2023-06-10T09:24:00;4.43;;;3.22;;
48727;SDS011;34527;45.618;5.130;2023-06-10T09:26:30;4.13;;;3.15;;
48727;SDS011;34527;45.618;5.130;2023-06-10T09:29:05;6.50;;;3.20;;
48727;SDS011;34527;45.618;5.130;2023-06-10T09:31:34;5.25;;;3.28;;
48727;SDS011;34527;45.618;5.130;2023-06-10T09:34:13;3.33;;;3.03;;
48727;SDS011;34527;45.618;5.130;2023-06-10T09:36:40;4.97;;;3.05;;
48727;SDS011;34527;45.618;5.130;2023-06-10T09:39:16;8.43;;;3.53;;
48727;SDS011;34527;45.618;5.130;2023-06-10T09:41:42;5.10;;;2.85;;
48727;SDS011;34527;45.618;5.130;2023-06-10T09:44:13;3.20;;;2.50;;
48727;SDS011;34527;45.618;5.130;2023-06-10T09:46:42;4.43;;;2.80;;
48727;SDS011;34527;45.618;5.130;2023-06-10T09:49:11;6.55;;;2.65;;
48727;SDS011;34527;45.618;5.130;2023-06-10T09:51:37;3.38;;;2.65;;
48727;SDS011;34527;45.618;5.130;2023-06-10T09:54:03;2.90;;;2.63;;
48727;SDS011;34527;45.618;5.130;2023-06-10T09:56:32;3.42;;;2.53;;
48727;SDS011;34527;45.618;5.130;2023-06-10T09:59:01;3.75;;;2.83;;
48727;SDS011;34527;45.618;5.130;2023-06-10T10:01:28;4.03;;;2.70;;
48727;SDS011;34527;45.618;5.130;2023-06-10T10:03:55;2.67;;;2.47;;
48727;SDS011;34527;45.618;5.130;2023-06-10T10:06:20;5.00;;;2.47;;
48727;SDS011;34527;45.618;5.130;2023-06-10T10:08:48;4.30;;;2.40;;
48727;SDS011;34527;45.618;5.130;2023-06-10T10:11:19;4.68;;;2.50;;
48727;SDS011;34527;45.618;5.130;2023-06-10T10:13:49;3.63;;;2.40;;
48727;SDS011;34527;45.618;5.130;2023-06-10T10:16:48;2.75;;;2.20;;
48727;SDS011;34527;45.618;5.130;2023-06-10T10:19:09;2.38;;;2.00;;
48727;SDS011;34527;45.618;5.130;2023-06-10T10:21:43;4.15;;;2.10;;
48727;SDS011;34527;45.618;5.130;2023-06-10T10:26:41;2.58;;;1.85;;
48727;SDS011;34527;45.618;5.130;2023-06-10T10:29:10;2.75;;;2.13;;
48727;SDS011;34527;45.618;5.130;2023-06-10T10:31:48;2.42;;;1.92;;
48727;SDS011;34527;45.618;5.130;2023-06-10T10:34:16;2.60;;;2.10;;
48727;SDS011;34527;45.618;5.130;2023-06-10T10:36:49;2.97;;;1.70;;
48727;SDS011;34527;45.618;5.130;2023-06-10T10:39:15;4.13;;;2.40;;
48727;SDS011;34527;45.618;5.130;2023-06-10T10:41:42;3.30;;;2.38;;
48727;SDS011;34527;45.618;5.130;2023-06-10T10:44:08;2.50;;;2.30;;
48727;SDS011;34527;45.618;5.130;2023-06-10T10:46:45;3.10;;;2.30;;
48727;SDS011;34527;45.618;5.130;2023-06-10T10:49:15;4.70;;;2.90;;
48727;SDS011;34527;45.618;5.130;2023-06-10T10:51:58;4.10;;;2.90;;
48727;SDS011;34527;45.618;5.130;2023-06-10T10:57:11;3.70;;;2.67;;
48727;SDS011;34527;45.618;5.130;2023-06-10T11:02:43;5.20;;;3.38;;
48727;SDS011;34527;45.618;5.130;2023-06-10T11:05:11;3.57;;;3.27;;
48727;SDS011;34527;45.618;5.130;2023-06-10T11:07:39;3.47;;;3.17;;
48727;SDS011;34527;45.618;5.130;2023-06-10T11:12:53;4.53;;;3.08;;
48727;SDS011;34527;45.618;5.130;2023-06-10T11:15:23;6.25;;;3.45;;
48727;SDS011;34527;45.618;5.130;2023-06-10T11:20:41;4.43;;;2.90;;
48727;SDS011;34527;45.618;5.130;2023-06-10T11:33:52;4.20;;;2.83;;
48727;SDS011;34527;45.618;5.130;2023-06-10T11:36:19;3.40;;;3.10;;
48727;SDS011;34527;45.618;5.130;2023-06-10T11:38:46;3.08;;;2.53;;
48727;SDS011;34527;45.618;5.130;2023-06-10T11:41:11;3.08;;;2.70;;
48727;SDS011;34527;45.618;5.130;2023-06-10T11:43:44;3.08;;;2.40;;
48727;SDS011;34527;45.618;5.130;2023-06-10T11:46:11;8.68;;;3.20;;
48727;SDS011;34527;45.618;5.130;2023-06-10T11:48:37;4.70;;;3.15;;
48727;SDS011;34527;45.618;5.130;2023-06-10T11:51:07;4.88;;;3.08;;
48727;SDS011;34527;45.618;5.130;2023-06-10T11:53:33;3.50;;;3.20;;
48727;SDS011;34527;45.618;5.130;2023-06-10T11:55:59;4.72;;;3.47;;
48727;SDS011;34527;45.618;5.130;2023-06-10T11:58:25;4.88;;;3.10;;
48727;SDS011;34527;45.618;5.130;2023-06-10T12:00:51;6.10;;;3.22;;
48727;SDS011;34527;45.618;5.130;2023-06-10T12:03:18;5.43;;;3.20;;
48727;SDS011;34527;45.618;5.130;2023-06-10T12:06:02;4.10;;;3.20;;
48727;SDS011;34527;45.618;5.130;2023-06-10T12:10:55;3.38;;;2.58;;
48727;SDS011;34527;45.618;5.130;2023-06-10T12:13:22;3.78;;;2.88;;
48727;SDS011;34527;45.618;5.130;2023-06-10T12:15:49;4.15;;;2.78;;
48727;SDS011;34527;45.618;5.130;2023-06-10T12:18:15;4.28;;;2.72;;
48727;SDS011;34527;45.618;5.130;2023-06-10T12:20:45;2.72;;;2.17;;
48727;SDS011;34527;45.618;5.130;2023-06-10T12:23:11;3.80;;;2.50;;
48727;SDS011;34527;45.618;5.130;2023-06-10T12:25:37;3.45;;;2.50;;
48727;SDS011;34527;45.618;5.130;2023-06-10T12:28:03;3.45;;;2.60;;
48727;SDS011;34527;45.618;5.130;2023-06-10T12:30:29;3.22;;;2.35;;
48727;SDS011;34527;45.618;5.130;2023-06-10T12:32:57;2.70;;;2.50;;
48727;SDS011;34527;45.618;5.130;2023-06-10T12:35:23;2.70;;;2.50;;
48727;SDS011;34527;45.618;5.130;2023-06-10T12:37:58;2.80;;;2.60;;
48727;SDS011;34527;45.618;5.130;2023-06-10T12:40:30;4.72;;;2.90;;
48727;SDS011;34527;45.618;5.130;2023-06-10T12:42:57;6.55;;;3.15;;
48727;SDS011;34527;45.618;5.130;2023-06-10T12:48:03;3.90;;;2.50;;
48727;SDS011;34527;45.618;5.130;2023-06-10T12:50:34;4.03;;;2.80;;
48727;SDS011;34527;45.618;5.130;2023-06-10T12:53:02;6.60;;;3.13;;
48727;SDS011;34527;45.618;5.130;2023-06-10T12:55:28;3.03;;;2.70;;
48727;SDS011;34527;45.618;5.130;2023-06-10T12:57:53;5.03;;;3.10;;
48727;SDS011;34527;45.618;5.130;2023-06-10T13:00:20;4.20;;;3.15;;
48727;SDS011;34527;45.618;5.130;2023-06-10T13:02:45;3.47;;;3.05;;
48727;SDS011;34527;45.618;5.130;2023-06-10T13:05:13;2.83;;;2.45;;
48727;SDS011;34527;45.618;5.130;2023-06-10T13:07:38;3.08;;;2.60;;
48727;SDS011;34527;45.618;5.130;2023-06-10T13:10:04;3.72;;;2.92;;
48727;SDS011;34527;45.618;5.130;2023-06-10T13:12:30;4.80;;;2.50;;
48727;SDS011;34527;45.618;5.130;2023-06-10T13:14:56;5.20;;;2.92;;
48727;SDS011;34527;45.618;5.130;2023-06-10T13:17:21;2.72;;;2.30;;
48727;SDS011;34527;45.618;5.130;2023-06-10T13:19:47;2.63;;;2.38;;
48727;SDS011;34527;45.618;5.130;2023-06-10T13:22:13;4.15;;;2.60;;
48727;SDS011;34527;45.618;5.130;2023-06-10T13:24:39;4.97;;;2.90;;
48727;SDS011;34527;45.618;5.130;2023-06-10T13:27:05;3.60;;;3.30;;
48727;SDS011;34527;45.618;5.130;2023-06-10T13:29:32;3.45;;;3.10;;
48727;SDS011;34527;45.618;5.130;2023-06-10T13:31:57;4.00;;;3.40;;
48727;SDS011;34527;45.618;5.130;2023-06-10T13:34:23;3.47;;;3.17;;
48727;SDS011;34527;45.618;5.130;2023-06-10T13:36:48;3.97;;;3.55;;
48727;SDS011;34527;45.618;5.130;2023-06-10T13:39:14;3.25;;;2.95;;
48727;SDS011;34527;45.618;5.130;2023-06-10T13:41:40;3.83;;;2.97;;
48727;SDS011;34527;45.618;5.130;2023-06-10T13:44:06;3.83;;;2.90;;
48727;SDS011;34527;45.618;5.130;2023-06-10T13:46:32;3.53;;;3.20;;
48727;SDS011;34527;45.618;5.130;2023-06-10T13:48:58;3.10;;;2.90;;
48727;SDS011;34527;45.618;5.130;2023-06-10T13:51:23;3.78;;;2.90;;
48727;SDS011;34527;45.618;5.130;2023-06-10T13:53:49;4.13;;;3.35;;
48727;SDS011;34527;45.618;5.130;2023-06-10T13:56:17;4.65;;;3.25;;
48727;SDS011;34527;45.618;5.130;2023-06-10T13:58:43;3.50;;;3.20;;
48727;SDS011;34527;45.618;5.130;2023-06-10T14:01:08;3.13;;;2.83;;
48727;SDS011;34527;45.618;5.130;2023-06-10T14:03:34;8.25;;;7.43;;
48727;SDS011;34527;45.618;5.130;2023-06-10T14:05:59;3.65;;;3.33;;
48727;SDS011;34527;45.618;5.130;2023-06-10T14:08:25;4.55;;;3.50;;
48727;SDS011;34527;45.618;5.130;2023-06-10T14:10:51;3.97;;;3.50;;
48727;SDS011;34527;45.618;5.130;2023-06-10T14:13:17;3.85;;;3.05;;
48727;SDS011;34527;45.618;5.130;2023-06-10T14:15:42;4.45;;;3.65;;
48727;SDS011;34527;45.618;5.130;2023-06-10T14:18:08;3.90;;;3.33;;
48727;SDS011;34527;45.618;5.130;2023-06-10T14:20:34;4.05;;;3.22;;
48727;SDS011;34527;45.618;5.130;2023-06-10T14:22:59;4.97;;;3.30;;
48727;SDS011;34527;45.618;5.130;2023-06-10T14:25:25;3.35;;;2.95;;
48727;SDS011;34527;45.618;5.130;2023-06-10T14:27:50;3.10;;;2.80;;
48727;SDS011;34527;45.618;5.130;2023-06-10T14:30:16;4.15;;;3.05;;
48727;SDS011;34527;45.618;5.130;2023-06-10T14:32:42;2.80;;;2.60;;
48727;SDS011;34527;45.618;5.130;2023-06-10T14:35:08;2.60;;;2.40;;
48727;SDS011;34527;45.618;5.130;2023-06-10T14:37:33;3.47;;;2.00;;
48727;SDS011;34527;45.618;5.130;2023-06-10T14:39:59;3.30;;;2.15;;
48727;SDS011;34527;45.618;5.130;2023-06-10T14:42:25;3.13;;;2.25;;
48727;SDS011;34527;45.618;5.130;2023-06-10T14:44:50;2.78;;;2.50;;
48727;SDS011;34527;45.618;5.130;2023-06-10T14:47:16;2.80;;;2.35;;
48727;SDS011;34527;45.618;5.130;2023-06-10T14:49:41;2.58;;;2.38;;
48727;SDS011;34527;45.618;5.130;2023-06-10T14:52:08;3.28;;;2.90;;
48727;SDS011;34527;45.618;5.130;2023-06-10T14:54:34;2.70;;;2.50;;
48727;SDS011;34527;45.618;5.130;2023-06-10T14:57:00;4.35;;;2.78;;
48727;SDS011;34527;45.618;5.130;2023-06-10T14:59:26;3.30;;;2.30;;
48727;SDS011;34527;45.618;5.130;2023-06-10T15:01:51;2.85;;;2.05;;
48727;SDS011;34527;45.618;5.130;2023-06-10T15:04:17;2.38;;;2.17;;
48727;SDS011;34527;45.618;5.130;2023-06-10T15:06:43;2.58;;;2.28;;
48727;SDS011;34527;45.618;5.130;2023-06-10T15:09:09;2.72;;;2.40;;
48727;SDS011;34527;45.618;5.130;2023-06-10T15:11:34;3.25;;;2.00;;
48727;SDS011;34527;45.618;5.130;2023-06-10T15:14:00;2.30;;;2.00;;
48727;SDS011;34527;45.618;5.130;2023-06-10T15:16:26;3.03;;;2.53;;
48727;SDS011;34527;45.618;5.130;2023-06-10T15:18:51;3.47;;;2.80;;